createdAt,value
2022-11-05T00:00:16.636Z,4.45
2022-11-05T00:03:01.777Z,4.20
2022-11-05T00:05:49.291Z,4.32
2022-11-05T00:08:34.408Z,4.30
2022-11-05T00:11:01.059Z,4.30
2022-11-05T00:13:46.721Z,4.20
2022-11-05T00:16:31.876Z,4.60
2022-11-05T00:19:07.029Z,4.18
2022-11-05T00:21:53.214Z,3.95
2022-11-05T00:24:54.997Z,3.80
2022-11-05T00:27:21.423Z,4.20
2022-11-05T00:29:47.800Z,4.20
2022-11-05T00:32:16.342Z,4.30
2022-11-05T00:34:42.779Z,4.50
2022-11-05T00:37:09.213Z,4.45
2022-11-05T00:39:35.686Z,4.72
2022-11-05T00:42:20.919Z,3.92
2022-11-05T00:45:05.159Z,4.20
2022-11-05T00:47:51.580Z,3.97
2022-11-05T00:50:19.958Z,3.90
2022-11-05T00:52:59.352Z,4.45
2022-11-05T00:55:28.339Z,4.25
2022-11-05T00:57:56.369Z,4.03
2022-11-05T01:00:25.061Z,4.40
2022-11-05T01:02:51.544Z,4.00
2022-11-05T01:05:18.240Z,4.07
2022-11-05T01:07:44.774Z,4.25
2022-11-05T01:10:11.248Z,3.67
2022-11-05T01:12:37.660Z,4.05
2022-11-05T01:15:04.454Z,3.90
2022-11-05T01:17:31.879Z,4.20
2022-11-05T01:19:58.372Z,3.90
2022-11-05T01:22:28.970Z,3.80
2022-11-05T01:24:55.884Z,3.90
2022-11-05T01:27:22.655Z,4.10
2022-11-05T01:29:51.880Z,4.00
2022-11-05T01:32:18.565Z,3.90
2022-11-05T01:34:45.037Z,4.40
2022-11-05T01:37:11.480Z,4.03
2022-11-05T01:39:37.918Z,4.40
2022-11-05T01:42:22.589Z,4.38
2022-11-05T01:44:56.751Z,4.20
2022-11-05T01:47:56.295Z,4.00
2022-11-05T01:50:29.578Z,4.10
2022-11-05T01:53:26.882Z,4.35
2022-11-05T01:56:33.129Z,4.65
2022-11-05T01:59:13.992Z,3.95
2022-11-05T02:01:40.489Z,4.10
2022-11-05T02:04:11.582Z,3.90
2022-11-05T02:06:46.340Z,3.97
2022-11-05T02:09:52.060Z,3.97
2022-11-05T02:12:19.615Z,3.78
2022-11-05T02:14:46.028Z,3.83
2022-11-05T02:17:15.311Z,4.00
2022-11-05T02:20:22.571Z,3.60
2022-11-05T02:23:04.551Z,3.42
2022-11-05T02:26:08.602Z,3.72
2022-11-05T02:29:12.694Z,3.83
2022-11-05T02:32:01.444Z,3.83
2022-11-05T02:34:37.489Z,3.92
2022-11-05T02:37:38.712Z,4.32
2022-11-05T02:40:13.252Z,3.60
2022-11-05T02:43:05.378Z,3.90
2022-11-05T02:45:49.060Z,3.67
2022-11-05T02:48:23.788Z,3.70
2022-11-05T02:50:59.793Z,4.30
2022-11-05T02:53:41.035Z,4.10
2022-11-05T02:56:22.596Z,4.05
2022-11-05T02:58:48.999Z,3.83
2022-11-05T03:01:15.876Z,4.05
2022-11-05T03:04:02.119Z,3.70
2022-11-05T03:06:50.103Z,3.83
2022-11-05T03:09:56.141Z,3.70
2022-11-05T03:12:42.658Z,4.20
2022-11-05T03:15:24.283Z,4.32
2022-11-05T03:18:06.804Z,3.90
2022-11-05T03:20:37.446Z,4.30
2022-11-05T03:23:37.637Z,3.70
2022-11-05T03:26:07.476Z,4.35
2022-11-05T03:28:37.141Z,4.28
2022-11-05T03:31:06.905Z,4.28
2022-11-05T03:33:36.584Z,4.03
2022-11-05T03:36:08.164Z,4.30
2022-11-05T03:38:38.939Z,4.10
2022-11-05T03:41:09.406Z,4.43
2022-11-05T03:46:15.770Z,3.70
2022-11-05T03:48:47.591Z,3.80
2022-11-05T03:51:39.550Z,3.47
2022-11-05T03:54:06.252Z,4.20
2022-11-05T03:56:38.268Z,3.70
2022-11-05T03:59:07.491Z,3.60
2022-11-05T04:01:36.856Z,3.92
2022-11-05T04:04:06.885Z,4.05
2022-11-05T04:06:55.052Z,4.30
2022-11-05T04:09:40.282Z,4.20
2022-11-05T04:12:25.140Z,3.95
2022-11-05T04:14:51.517Z,3.70
2022-11-05T04:17:17.923Z,4.10
2022-11-05T04:20:03.543Z,4.07
2022-11-05T04:22:50.666Z,4.22
2022-11-05T04:25:20.910Z,4.20
2022-11-05T04:27:47.648Z,4.45
2022-11-05T04:30:18.558Z,3.85
2022-11-05T04:33:14.282Z,4.40
2022-11-05T04:35:46.759Z,4.40
2022-11-05T04:38:19.620Z,4.03
2022-11-05T04:40:47.614Z,3.95
2022-11-05T04:43:16.742Z,4.32
2022-11-05T04:45:45.140Z,4.53
2022-11-05T04:48:12.437Z,4.57
2022-11-05T04:50:39.364Z,5.28
2022-11-05T04:53:06.899Z,5.00
2022-11-05T04:55:40.356Z,4.70
2022-11-05T04:58:06.796Z,5.18
2022-11-05T05:00:33.278Z,5.10
2022-11-05T05:03:00.409Z,5.20
2022-11-05T05:05:27.283Z,5.40
2022-11-05T05:07:53.708Z,5.35
2022-11-05T05:10:22.287Z,4.68
2022-11-05T05:12:48.846Z,5.25
2022-11-05T05:15:15.505Z,4.97
2022-11-05T05:17:41.977Z,5.43
2022-11-05T05:20:27.386Z,6.40
2022-11-05T05:22:54.773Z,6.10
2022-11-05T05:25:22.096Z,6.05
2022-11-05T05:27:48.538Z,5.93
2022-11-05T05:30:19.136Z,6.20
2022-11-05T05:32:45.523Z,6.03
2022-11-05T05:35:12.092Z,5.38
2022-11-05T05:37:38.655Z,5.70
2022-11-05T05:40:05.561Z,5.97
2022-11-05T05:42:32.586Z,5.80
2022-11-05T05:44:59.038Z,5.45
2022-11-05T05:47:25.469Z,5.60
2022-11-05T05:49:52.368Z,5.60
2022-11-05T05:52:18.884Z,6.03
2022-11-05T05:54:45.329Z,5.40
2022-11-05T05:57:11.797Z,6.35
2022-11-05T05:59:39.351Z,5.68
2022-11-05T06:02:05.935Z,5.47
2022-11-05T06:04:32.408Z,5.90
2022-11-05T06:07:02.917Z,5.47
2022-11-05T06:09:29.482Z,5.55
2022-11-05T06:11:55.848Z,5.18
2022-11-05T06:14:22.361Z,5.43
2022-11-05T06:16:48.763Z,5.68
2022-11-05T06:19:21.278Z,5.22
2022-11-05T06:21:49.610Z,5.13
2022-11-05T06:24:23.895Z,5.60
2022-11-05T06:26:52.565Z,5.38
2022-11-05T06:29:19.045Z,5.57
2022-11-05T06:31:45.566Z,5.50
2022-11-05T06:34:12.302Z,5.75
2022-11-05T06:36:40.123Z,5.50
2022-11-05T06:39:11.350Z,4.88
2022-11-05T06:41:56.985Z,4.95
2022-11-05T06:44:26.300Z,5.20
2022-11-05T06:46:52.727Z,5.00
2022-11-05T06:49:24.901Z,5.00
2022-11-05T06:51:52.389Z,5.40
2022-11-05T06:54:18.841Z,5.18
2022-11-05T06:56:45.688Z,4.80
2022-11-05T06:59:12.096Z,4.35
2022-11-05T07:01:39.754Z,5.22
2022-11-05T07:04:06.263Z,4.80
2022-11-05T07:06:37.020Z,4.38
2022-11-05T07:09:05.080Z,4.45
2022-11-05T07:11:31.992Z,4.68
2022-11-05T07:13:58.487Z,4.65
2022-11-05T07:16:25.293Z,4.60
2022-11-05T07:18:53.201Z,4.40
2022-11-05T07:21:23.097Z,4.70
2022-11-05T07:23:49.683Z,5.57
2022-11-05T07:26:16.110Z,5.40
2022-11-05T07:28:48.527Z,6.15
2022-11-05T07:31:15.279Z,5.38
2022-11-05T07:33:41.760Z,4.90
2022-11-05T07:36:09.421Z,4.75
2022-11-05T07:38:36.088Z,4.22
2022-11-05T07:41:02.972Z,4.88
2022-11-05T07:43:29.504Z,4.00
2022-11-05T07:45:55.956Z,4.50
2022-11-05T07:48:23.533Z,4.28
2022-11-05T07:50:52.145Z,3.80
2022-11-05T07:53:20.605Z,4.13
2022-11-05T07:55:47.330Z,3.90
2022-11-05T07:58:14.568Z,4.80
2022-11-05T08:00:41.087Z,4.03
2022-11-05T08:03:13.026Z,4.10
2022-11-05T08:05:44.501Z,3.85
2022-11-05T08:08:14.514Z,3.80
2022-11-05T08:10:41.933Z,4.15
2022-11-05T08:13:09.427Z,4.10
2022-11-05T08:15:36.914Z,4.15
2022-11-05T08:18:15.815Z,4.38
2022-11-05T08:20:43.894Z,4.00
2022-11-05T08:23:11.693Z,3.75
2022-11-05T08:25:39.730Z,4.13
2022-11-05T08:28:10.096Z,4.25
2022-11-05T08:30:36.639Z,4.18
2022-11-05T08:33:06.153Z,3.75
2022-11-05T08:35:39.538Z,4.27
2022-11-05T08:38:07.729Z,3.47
2022-11-05T08:40:38.652Z,3.85
2022-11-05T08:43:07.223Z,3.92
2022-11-05T08:45:34.776Z,3.60
2022-11-05T08:48:12.386Z,4.72
2022-11-05T08:50:39.535Z,4.05
2022-11-05T08:53:13.574Z,4.40
2022-11-05T08:55:43.978Z,4.28
2022-11-05T08:58:20.924Z,3.78
2022-11-05T09:00:49.954Z,4.35
2022-11-05T09:03:16.896Z,3.97
2022-11-05T09:05:46.912Z,5.10
2022-11-05T09:08:19.005Z,4.20
2022-11-05T09:10:47.392Z,4.00
2022-11-05T09:13:18.861Z,4.85
2022-11-05T09:15:47.270Z,4.15
2022-11-05T09:18:14.145Z,4.50
2022-11-05T09:20:53.168Z,4.20
2022-11-05T09:23:19.717Z,5.25
2022-11-05T09:25:46.240Z,3.88
2022-11-05T09:28:21.480Z,3.97
2022-11-05T09:30:53.462Z,4.20
2022-11-05T09:33:22.908Z,4.50
2022-11-05T09:35:51.699Z,4.40
2022-11-05T09:38:19.335Z,4.13
2022-11-05T09:41:02.764Z,4.30
2022-11-05T09:44:06.105Z,4.25
2022-11-05T09:46:53.175Z,4.15
2022-11-05T09:49:40.120Z,3.90
2022-11-05T09:52:13.696Z,4.68
2022-11-05T09:54:40.627Z,3.97
2022-11-05T09:57:15.819Z,4.15
2022-11-05T09:59:47.094Z,4.13
2022-11-05T10:02:27.716Z,4.20
2022-11-05T10:05:01.531Z,4.28
2022-11-05T10:07:41.074Z,4.80
2022-11-05T10:10:17.165Z,4.68
2022-11-05T10:12:51.052Z,4.55
2022-11-05T10:15:42.992Z,4.35
2022-11-05T10:18:28.279Z,4.20
2022-11-05T10:20:57.145Z,4.88
2022-11-05T10:23:26.066Z,4.60
2022-11-05T10:26:06.234Z,4.18
2022-11-05T10:28:34.185Z,4.35
2022-11-05T10:31:07.262Z,4.47
2022-11-05T10:33:41.161Z,4.10
2022-11-05T10:36:26.383Z,4.22
2022-11-05T10:39:26.629Z,4.03
2022-11-05T10:42:10.740Z,4.20
2022-11-05T10:44:53.383Z,4.30
2022-11-05T10:47:27.961Z,4.70
2022-11-05T10:49:59.551Z,4.22
2022-11-05T10:52:40.064Z,4.03
2022-11-05T10:57:53.437Z,4.22
2022-11-05T11:00:28.424Z,4.32
2022-11-05T11:03:02.801Z,4.68
2022-11-05T11:05:39.038Z,4.35
2022-11-05T11:08:23.029Z,4.45
2022-11-05T11:10:54.898Z,4.30
2022-11-05T11:13:45.942Z,4.53
2022-11-05T11:16:37.748Z,4.80
2022-11-05T11:19:26.512Z,4.88
2022-11-05T11:22:05.039Z,4.65
2022-11-05T11:24:43.317Z,5.07
2022-11-05T11:27:29.984Z,4.60
2022-11-05T11:30:00.103Z,4.57
2022-11-05T11:32:33.087Z,4.78
2022-11-05T11:35:01.071Z,5.00
2022-11-05T11:37:37.336Z,5.10
2022-11-05T11:40:20.454Z,4.53
2022-11-05T11:42:57.052Z,4.60
2022-11-05T11:45:36.264Z,5.00
2022-11-05T11:48:06.050Z,4.35
2022-11-05T11:50:44.162Z,4.68
2022-11-05T11:53:19.634Z,4.80
2022-11-05T11:55:55.148Z,5.13
2022-11-05T11:58:23.737Z,4.75
2022-11-05T12:00:57.138Z,5.00
2022-11-05T12:03:35.571Z,4.60
2022-11-05T12:06:18.163Z,4.10
2022-11-05T12:09:11.467Z,4.38
2022-11-05T12:11:58.807Z,4.20
2022-11-05T12:14:34.587Z,4.47
2022-11-05T12:17:30.200Z,4.60
2022-11-05T12:20:08.940Z,4.75
2022-11-05T12:23:00.527Z,4.75
2022-11-05T12:25:37.354Z,4.85
2022-11-05T12:28:17.380Z,4.50
2022-11-05T12:30:52.638Z,4.40
2022-11-05T12:33:37.697Z,4.30
2022-11-05T12:36:14.602Z,3.90
2022-11-05T12:39:16.490Z,3.83
2022-11-05T12:42:00.101Z,4.38
2022-11-05T12:44:49.917Z,4.20
2022-11-05T12:47:31.010Z,4.20
2022-11-05T12:49:59.594Z,4.28
2022-11-05T12:52:43.906Z,4.30
2022-11-05T12:55:23.044Z,4.53
2022-11-05T12:57:53.727Z,4.20
2022-11-05T13:00:25.534Z,4.15
2022-11-05T13:02:51.943Z,4.15
2022-11-05T13:05:38.487Z,3.90
2022-11-05T13:08:13.009Z,3.95
2022-11-05T13:10:57.863Z,4.25
2022-11-05T13:13:40.951Z,4.68
2022-11-05T13:16:23.143Z,4.57
2022-11-05T13:19:02.951Z,4.43
2022-11-05T13:21:30.592Z,3.88
2022-11-05T13:24:07.670Z,4.70
2022-11-05T13:26:46.209Z,4.78
2022-11-05T13:29:18.715Z,4.72
2022-11-05T13:31:53.385Z,4.22
2022-11-05T13:34:19.886Z,4.60
2022-11-05T13:37:12.605Z,4.72
2022-11-05T13:39:47.129Z,4.30
2022-11-05T13:42:16.458Z,4.55
2022-11-05T13:45:03.947Z,4.68
2022-11-05T13:48:08.969Z,4.50
2022-11-05T13:50:47.626Z,4.47
2022-11-05T13:53:26.289Z,4.80
2022-11-05T13:55:58.578Z,4.55
2022-11-05T13:59:03.088Z,5.00
2022-11-05T14:01:45.218Z,4.72
2022-11-05T14:04:37.946Z,4.65
2022-11-05T14:07:25.667Z,4.95
2022-11-05T14:10:01.458Z,5.13
2022-11-05T14:12:33.830Z,4.72
2022-11-05T14:15:08.568Z,4.57
2022-11-05T14:17:58.328Z,4.65
2022-11-05T14:20:39.153Z,4.68
2022-11-05T14:23:17.678Z,4.85
2022-11-05T14:25:44.134Z,5.10
2022-11-05T14:28:35.440Z,4.85
2022-11-05T14:31:47.282Z,5.22
2022-11-05T14:34:13.267Z,5.40
2022-11-05T14:36:42.085Z,5.40
2022-11-05T14:39:32.062Z,5.65
2022-11-05T14:42:03.200Z,5.70
2022-11-05T14:44:32.701Z,5.40
2022-11-05T14:47:03.978Z,5.23
2022-11-05T14:49:36.768Z,5.13
2022-11-05T14:52:09.743Z,5.35
2022-11-05T14:54:48.985Z,5.75
2022-11-05T14:57:41.966Z,5.32
2022-11-05T15:00:32.346Z,5.10
2022-11-05T15:03:05.330Z,4.75
2022-11-05T15:05:33.297Z,4.85
2022-11-05T15:08:20.120Z,5.10
2022-11-05T15:10:49.878Z,5.53
2022-11-05T15:13:34.311Z,4.95
2022-11-05T15:16:03.120Z,5.18
2022-11-05T15:18:34.050Z,4.97
2022-11-05T15:21:04.779Z,4.75
2022-11-05T15:23:44.591Z,5.07
2022-11-05T15:26:18.049Z,5.50
2022-11-05T15:28:50.737Z,5.10
2022-11-05T15:31:34.475Z,5.80
2022-11-05T15:34:18.114Z,5.43
2022-11-05T15:36:48.942Z,5.32
2022-11-05T15:39:45.902Z,4.90
2022-11-05T15:42:13.374Z,5.38
2022-11-05T15:44:44.871Z,5.10
2022-11-05T15:47:19.499Z,5.40
2022-11-05T15:49:50.707Z,5.45
2022-11-05T15:52:19.571Z,5.95
2022-11-05T15:54:46.068Z,5.30
2022-11-05T15:57:21.367Z,5.03
2022-11-05T15:59:48.255Z,4.75
2022-11-05T16:02:26.695Z,5.25
2022-11-05T16:04:54.864Z,5.30
2022-11-05T16:07:21.467Z,5.32
2022-11-05T16:09:54.893Z,4.85
2022-11-05T16:12:24.841Z,4.82
2022-11-05T16:15:03.744Z,5.22
2022-11-05T16:17:33.441Z,5.80
2022-11-05T16:19:59.970Z,5.85
2022-11-05T16:22:44.224Z,6.07
2022-11-05T16:25:41.927Z,6.03
2022-11-05T16:28:23.892Z,6.57
2022-11-05T16:30:54.406Z,5.97
2022-11-05T16:35:49.643Z,5.57
2022-11-05T16:38:17.067Z,5.30
2022-11-05T16:40:43.858Z,5.45
2022-11-05T16:43:24.821Z,5.18
2022-11-05T16:45:57.620Z,4.90
2022-11-05T16:48:24.495Z,5.32
2022-11-05T16:50:53.481Z,4.93
2022-11-05T16:53:20.163Z,5.00
2022-11-05T16:55:46.966Z,5.30
2022-11-05T16:58:21.809Z,4.85
2022-11-05T17:00:50.626Z,5.00
2022-11-05T17:03:17.428Z,4.22
2022-11-05T17:05:44.335Z,4.82
2022-11-05T17:08:11.078Z,4.60
2022-11-05T17:10:37.931Z,4.45
2022-11-05T17:13:04.691Z,4.30
2022-11-05T17:15:35.400Z,4.63
2022-11-05T17:18:04.519Z,5.20
2022-11-05T17:20:41.090Z,4.90
2022-11-05T17:23:19.576Z,4.60
2022-11-05T17:25:48.765Z,4.65
2022-11-05T17:28:16.714Z,5.00
2022-11-05T17:30:46.659Z,4.78
2022-11-05T17:33:18.418Z,4.88
2022-11-05T17:35:45.385Z,5.03
2022-11-05T17:38:12.651Z,4.88
2022-11-05T17:40:39.781Z,4.63
2022-11-05T17:43:06.246Z,4.65
2022-11-05T17:45:32.840Z,5.50
2022-11-05T17:47:59.763Z,4.68
2022-11-05T17:50:26.256Z,5.20
2022-11-05T17:52:52.919Z,5.82
2022-11-05T17:55:19.392Z,5.38
2022-11-05T17:57:50.405Z,5.80
2022-11-05T18:00:22.462Z,6.07
2022-11-05T18:02:49.922Z,5.32
2022-11-05T18:05:20.238Z,5.45
2022-11-05T18:07:47.317Z,5.90
2022-11-05T18:10:14.528Z,5.72
2022-11-05T18:12:41.363Z,5.72
2022-11-05T18:15:08.858Z,5.50
2022-11-05T18:17:35.282Z,5.63
2022-11-05T18:20:02.188Z,5.47
2022-11-05T18:22:29.534Z,5.68
2022-11-05T18:24:55.995Z,5.72
2022-11-05T18:27:24.598Z,5.43
2022-11-05T18:29:51.147Z,6.57
2022-11-05T18:32:17.713Z,5.85
2022-11-05T18:34:44.118Z,6.50
2022-11-05T18:37:11.227Z,5.57
2022-11-05T18:39:37.702Z,5.85
2022-11-05T18:42:04.532Z,6.10
2022-11-05T18:44:34.929Z,5.70
2022-11-05T18:47:05.859Z,6.53
2022-11-05T18:49:32.356Z,6.20
2022-11-05T18:51:58.803Z,6.10
2022-11-05T18:54:25.177Z,5.95
2022-11-05T18:56:51.551Z,6.00
2022-11-05T19:02:07.024Z,6.28
2022-11-05T19:04:35.616Z,6.68
2022-11-05T19:07:05.090Z,7.40
2022-11-05T19:09:32.363Z,6.90
2022-11-05T19:11:58.824Z,7.32
2022-11-05T19:14:25.450Z,6.90
2022-11-05T19:16:52.090Z,7.13
2022-11-05T19:19:19.814Z,7.50
2022-11-05T19:21:46.245Z,7.38
2022-11-05T19:24:16.760Z,6.65
2022-11-05T19:26:49.828Z,6.72
2022-11-05T19:29:16.395Z,6.75
2022-11-05T19:31:44.473Z,7.60
2022-11-05T19:34:13.163Z,7.28
2022-11-05T19:36:43.897Z,7.30
2022-11-05T19:39:14.140Z,6.85
2022-11-05T19:41:41.064Z,7.47
2022-11-05T19:44:07.889Z,7.35
2022-11-05T19:46:37.320Z,7.63
2022-11-05T19:49:05.005Z,7.22
2022-11-05T19:51:32.439Z,7.20
2022-11-05T19:54:00.899Z,7.53
2022-11-05T19:56:30.501Z,7.38
2022-11-05T19:59:00.626Z,7.70
2022-11-05T20:01:28.562Z,7.45
2022-11-05T20:03:58.882Z,7.57
2022-11-05T20:06:34.271Z,7.40
2022-11-05T20:11:51.439Z,8.25
2022-11-05T20:14:20.639Z,7.80
2022-11-05T20:16:52.855Z,7.88
2022-11-05T20:19:21.491Z,8.35
2022-11-05T20:21:48.398Z,8.43
2022-11-05T20:24:24.297Z,8.38
2022-11-05T20:26:51.647Z,8.48
2022-11-05T20:29:21.116Z,8.18
2022-11-05T20:31:48.640Z,8.57
2022-11-05T20:34:15.055Z,8.73
2022-11-05T20:36:41.492Z,9.20
2022-11-05T20:39:10.765Z,8.75
2022-11-05T20:41:40.847Z,8.82
2022-11-05T20:44:11.890Z,9.07
2022-11-05T20:46:41.630Z,8.75
2022-11-05T20:49:09.791Z,10.35
2022-11-05T20:51:36.344Z,9.27
2022-11-05T20:54:06.469Z,9.38
2022-11-05T20:56:35.331Z,8.60
2022-11-05T20:59:04.132Z,8.63
2022-11-05T21:01:36.763Z,9.32
2022-11-05T21:04:07.048Z,8.70
2022-11-05T21:06:37.827Z,9.50
2022-11-05T21:09:07.780Z,8.50
2022-11-05T21:11:57.430Z,8.40
2022-11-05T21:14:26.370Z,9.03
2022-11-05T21:16:56.008Z,9.15
2022-11-05T21:19:28.296Z,9.02
2022-11-05T21:21:55.687Z,9.20
2022-11-05T21:24:27.201Z,8.43
2022-11-05T21:26:56.540Z,9.13
2022-11-05T21:29:24.426Z,9.55
2022-11-05T21:31:52.404Z,9.43
2022-11-05T21:34:19.484Z,8.73
2022-11-05T21:36:50.260Z,9.30
2022-11-05T21:39:28.125Z,8.98
2022-11-05T21:41:54.797Z,9.23
2022-11-05T21:44:21.233Z,8.95
2022-11-05T21:46:47.649Z,8.65
2022-11-05T21:49:17.192Z,8.63
2022-11-05T21:52:02.440Z,9.13
2022-11-05T21:54:47.498Z,8.18
2022-11-05T21:57:35.570Z,7.97
2022-11-05T22:00:08.483Z,8.60
2022-11-05T22:02:36.958Z,8.27
2022-11-05T22:05:04.346Z,8.57
2022-11-05T22:07:34.209Z,8.25
2022-11-05T22:10:01.280Z,8.50
2022-11-05T22:12:29.002Z,8.50
2022-11-05T22:14:55.353Z,8.82
2022-11-05T22:17:21.809Z,8.02
2022-11-05T22:19:48.425Z,8.27
2022-11-05T22:22:15.106Z,8.50
2022-11-05T22:24:41.699Z,8.55
2022-11-05T22:27:16.989Z,8.43
2022-11-05T22:29:43.561Z,8.98
2022-11-05T22:32:11.023Z,9.07
2022-11-05T22:34:37.389Z,8.98
2022-11-05T22:37:04.199Z,8.60
2022-11-05T22:39:31.043Z,9.38
2022-11-05T22:41:58.287Z,9.55
2022-11-05T22:44:26.189Z,9.38
2022-11-05T22:46:53.554Z,9.82
2022-11-05T22:49:19.957Z,9.82
2022-11-05T22:51:46.650Z,9.68
2022-11-05T22:54:18.517Z,9.63
2022-11-05T22:56:45.111Z,9.85
2022-11-05T22:59:15.730Z,10.68
2022-11-05T23:01:44.141Z,10.73
2022-11-05T23:04:11.131Z,10.32
2022-11-05T23:06:56.225Z,10.82
2022-11-05T23:09:43.992Z,10.88
2022-11-05T23:12:22.400Z,10.98
2022-11-05T23:14:49.044Z,11.20
2022-11-05T23:17:34.119Z,10.63
2022-11-05T23:20:19.502Z,10.15
2022-11-05T23:23:04.271Z,11.90
2022-11-05T23:25:30.671Z,10.38
2022-11-05T23:27:58.225Z,10.55
2022-11-05T23:30:26.694Z,10.55
2022-11-05T23:32:53.585Z,10.75
2022-11-05T23:35:40.145Z,10.30
2022-11-05T23:38:25.284Z,11.15
2022-11-05T23:41:10.639Z,10.30
2022-11-05T23:43:56.022Z,10.35
2022-11-05T23:46:41.434Z,10.80
2022-11-05T23:49:08.146Z,10.30
2022-11-05T23:51:34.502Z,10.32
2022-11-05T23:54:00.920Z,10.40
2022-11-05T23:56:27.334Z,9.75
2022-11-05T23:58:53.723Z,9.90
